createdAt,value
2017-05-17T00:00:33.742Z,0
2017-05-17T00:01:14.188Z,0
2017-05-17T00:01:54.578Z,0
2017-05-17T00:02:34.962Z,0
2017-05-17T00:03:15.410Z,0
2017-05-17T00:03:55.786Z,0
2017-05-17T00:04:36.280Z,0
2017-05-17T00:05:16.663Z,0
2017-05-17T00:05:57.089Z,0
2017-05-17T00:06:37.637Z,0
2017-05-17T00:07:18.075Z,0
2017-05-17T00:07:58.483Z,0
2017-05-17T00:08:38.917Z,0
2017-05-17T00:09:19.278Z,0
2017-05-17T00:09:59.708Z,0
2017-05-17T00:10:40.144Z,0
2017-05-17T00:11:20.539Z,0
2017-05-17T00:12:00.923Z,0
2017-05-17T00:12:42.342Z,0
2017-05-17T00:13:22.767Z,0
2017-05-17T00:14:03.179Z,0
2017-05-17T00:14:44.443Z,0
2017-05-17T00:15:26.697Z,0
2017-05-17T00:16:07.139Z,0
2017-05-17T00:16:47.481Z,0
2017-05-17T00:17:27.927Z,0
2017-05-17T00:18:08.879Z,0
2017-05-17T00:18:50.043Z,0
2017-05-17T00:19:30.970Z,0
2017-05-17T00:20:13.967Z,0
2017-05-17T00:20:54.319Z,0
2017-05-17T00:21:35.646Z,0
2017-05-17T00:22:16.048Z,0
2017-05-17T00:22:56.486Z,0
2017-05-17T00:23:38.471Z,0
2017-05-17T00:24:18.882Z,0
2017-05-17T00:24:59.298Z,0
2017-05-17T00:25:40.404Z,0
2017-05-17T00:26:20.763Z,0
2017-05-17T00:27:02.425Z,0
2017-05-17T00:27:42.887Z,0
2017-05-17T00:28:23.246Z,0
2017-05-17T00:29:03.715Z,0
2017-05-17T00:29:44.145Z,0
2017-05-17T00:30:24.605Z,0
2017-05-17T00:31:05.025Z,0
2017-05-17T00:31:45.425Z,0
2017-05-17T00:32:26.587Z,0
2017-05-17T00:33:06.999Z,0
2017-05-17T00:33:48.087Z,0
2017-05-17T00:34:31.881Z,0
2017-05-17T00:35:12.350Z,0
2017-05-17T00:35:56.641Z,0
2017-05-17T00:36:37.041Z,0
2017-05-17T00:37:17.404Z,0
2017-05-17T00:37:57.863Z,0
2017-05-17T00:38:38.259Z,0
2017-05-17T00:39:18.718Z,0
2017-05-17T00:39:59.879Z,0
2017-05-17T00:40:40.373Z,0
2017-05-17T00:41:20.742Z,0
2017-05-17T00:42:01.166Z,0
2017-05-17T00:42:42.556Z,0
2017-05-17T00:43:22.972Z,0
2017-05-17T00:44:03.387Z,0
2017-05-17T00:44:43.814Z,0
2017-05-17T00:45:24.220Z,0
2017-05-17T00:46:04.671Z,0
2017-05-17T00:46:45.044Z,0
2017-05-17T00:47:25.481Z,0
2017-05-17T00:48:05.896Z,0
2017-05-17T00:48:46.321Z,0
2017-05-17T00:49:26.768Z,0
2017-05-17T00:50:07.200Z,0
2017-05-17T00:50:47.659Z,0
2017-05-17T00:51:28.010Z,0
2017-05-17T00:52:08.482Z,0
2017-05-17T00:52:48.871Z,0
2017-05-17T00:53:29.293Z,0
2017-05-17T00:54:09.761Z,0
2017-05-17T00:54:50.176Z,0
2017-05-17T00:55:30.588Z,0
2017-05-17T00:56:11.002Z,0
2017-05-17T00:56:51.430Z,0
2017-05-17T00:57:31.819Z,0
2017-05-17T00:58:12.242Z,0
2017-05-17T00:58:52.746Z,0
2017-05-17T00:59:33.195Z,0
2017-05-17T01:00:13.599Z,0
2017-05-17T01:00:54.041Z,0
2017-05-17T01:01:34.400Z,0
2017-05-17T01:02:14.870Z,0
2017-05-17T01:02:55.293Z,0
2017-05-17T01:03:35.737Z,0
2017-05-17T01:04:16.134Z,0
2017-05-17T01:04:56.551Z,0
2017-05-17T01:05:36.987Z,0
2017-05-17T01:06:17.382Z,0
2017-05-17T01:06:57.807Z,0
2017-05-17T01:07:38.300Z,0
2017-05-17T01:08:18.746Z,0
2017-05-17T01:08:59.174Z,0
2017-05-17T01:09:39.615Z,0
2017-05-17T01:10:20.004Z,0
2017-05-17T01:11:00.428Z,0
2017-05-17T01:11:40.843Z,0
2017-05-17T01:12:21.294Z,0
2017-05-17T01:13:01.698Z,0
2017-05-17T01:13:42.101Z,0
2017-05-17T01:14:22.530Z,0
2017-05-17T01:15:02.897Z,0
2017-05-17T01:15:43.299Z,0
2017-05-17T01:16:23.740Z,0
2017-05-17T01:17:04.345Z,0
2017-05-17T01:17:44.689Z,0
2017-05-17T01:18:25.149Z,0
2017-05-17T01:19:05.552Z,0
2017-05-17T01:19:45.985Z,0
2017-05-17T01:20:26.361Z,0
2017-05-17T01:21:06.787Z,0
2017-05-17T01:21:47.180Z,0
2017-05-17T01:22:27.579Z,0
2017-05-17T01:23:08.007Z,0
2017-05-17T01:23:48.432Z,0
2017-05-17T01:24:28.833Z,0
2017-05-17T01:25:09.223Z,0
2017-05-17T01:25:49.675Z,0
2017-05-17T01:26:30.092Z,0
2017-05-17T01:27:10.468Z,0
2017-05-17T01:27:50.880Z,0
2017-05-17T01:28:31.353Z,0
2017-05-17T01:29:11.748Z,0
2017-05-17T01:29:52.193Z,0
2017-05-17T01:30:32.591Z,0
2017-05-17T01:31:13.019Z,0
2017-05-17T01:31:53.443Z,0
2017-05-17T01:32:33.835Z,0
2017-05-17T01:33:14.239Z,0
2017-05-17T01:33:54.593Z,0
2017-05-17T01:34:35.038Z,0
2017-05-17T01:35:15.451Z,0
2017-05-17T01:35:55.847Z,0
2017-05-17T01:36:36.242Z,0
2017-05-17T01:37:16.677Z,0
2017-05-17T01:37:57.074Z,0
2017-05-17T01:38:37.509Z,0
2017-05-17T01:39:17.879Z,0
2017-05-17T01:39:58.324Z,0
2017-05-17T01:40:38.718Z,0
2017-05-17T01:41:19.125Z,0
2017-05-17T01:41:59.514Z,0
2017-05-17T01:42:39.885Z,0
2017-05-17T01:43:20.334Z,0
2017-05-17T01:44:00.757Z,0
2017-05-17T01:44:41.166Z,0
2017-05-17T01:45:21.601Z,0
2017-05-17T01:46:02.046Z,0
2017-05-17T01:46:42.456Z,0
2017-05-17T01:47:22.878Z,0
2017-05-17T01:48:03.241Z,0
2017-05-17T01:48:43.753Z,0
2017-05-17T01:49:24.207Z,0
2017-05-17T01:50:04.597Z,0
2017-05-17T01:50:45.020Z,0
2017-05-17T01:51:25.366Z,0
2017-05-17T01:52:05.767Z,0
2017-05-17T01:52:46.227Z,0
2017-05-17T01:53:26.645Z,0
2017-05-17T01:54:07.052Z,0
2017-05-17T01:54:47.503Z,0
2017-05-17T01:55:27.896Z,0
2017-05-17T01:56:08.328Z,0
2017-05-17T01:56:48.711Z,0
2017-05-17T01:57:29.209Z,0
2017-05-17T01:58:09.609Z,0
2017-05-17T01:58:50.019Z,0
2017-05-17T01:59:30.403Z,0
2017-05-17T02:00:10.839Z,0
2017-05-17T02:00:51.236Z,0
2017-05-17T02:01:31.615Z,0
2017-05-17T02:02:12.056Z,0
2017-05-17T02:02:52.516Z,0
2017-05-17T02:03:32.882Z,0
2017-05-17T02:04:13.306Z,0
2017-05-17T02:04:53.707Z,0
2017-05-17T02:05:34.127Z,0
2017-05-17T02:06:14.524Z,0
2017-05-17T02:06:54.949Z,0
2017-05-17T02:07:35.344Z,0
2017-05-17T02:08:15.823Z,0
2017-05-17T02:08:56.219Z,0
2017-05-17T02:09:36.601Z,0
2017-05-17T02:10:17.017Z,0
2017-05-17T02:10:57.426Z,0
2017-05-17T02:11:37.806Z,0
2017-05-17T02:12:18.222Z,0
2017-05-17T02:12:58.642Z,0
2017-05-17T02:13:39.031Z,0
2017-05-17T02:14:19.445Z,0
2017-05-17T02:14:59.886Z,0
2017-05-17T02:15:40.304Z,0
2017-05-17T02:16:20.772Z,0
2017-05-17T02:17:01.230Z,0
2017-05-17T02:17:41.643Z,0
2017-05-17T02:18:22.084Z,0
2017-05-17T02:19:02.477Z,0
2017-05-17T02:19:42.876Z,0
2017-05-17T02:20:23.287Z,0
2017-05-17T02:21:03.758Z,0
2017-05-17T02:21:44.224Z,0
2017-05-17T02:22:24.638Z,0
2017-05-17T02:23:05.042Z,0
2017-05-17T02:23:45.469Z,0
2017-05-17T02:24:25.849Z,0
2017-05-17T02:25:06.280Z,0
2017-05-17T02:25:48.256Z,0
2017-05-17T02:26:28.678Z,0
2017-05-17T02:27:09.077Z,0
2017-05-17T02:27:49.553Z,0
2017-05-17T02:28:29.955Z,0
2017-05-17T02:29:10.430Z,0
2017-05-17T02:29:50.874Z,0
2017-05-17T02:30:31.302Z,0
2017-05-17T02:31:11.775Z,0
2017-05-17T02:31:52.205Z,0
2017-05-17T02:32:32.574Z,0
2017-05-17T02:33:13.041Z,0
2017-05-17T02:33:53.503Z,0
2017-05-17T02:34:33.892Z,0
2017-05-17T02:35:14.336Z,0
2017-05-17T02:35:54.700Z,0
2017-05-17T02:36:35.151Z,0
2017-05-17T02:37:15.581Z,0
2017-05-17T02:37:55.955Z,0
2017-05-17T02:38:36.404Z,0
2017-05-17T02:39:16.839Z,0
2017-05-17T02:39:57.200Z,0
2017-05-17T02:40:37.663Z,0
2017-05-17T02:41:18.070Z,0
2017-05-17T02:41:58.514Z,0
2017-05-17T02:42:38.880Z,0
2017-05-17T02:43:19.364Z,0
2017-05-17T02:43:59.727Z,0
2017-05-17T02:44:40.181Z,0
2017-05-17T02:45:21.246Z,0
2017-05-17T02:46:01.716Z,0
2017-05-17T02:46:42.072Z,0
2017-05-17T02:47:22.503Z,0
2017-05-17T02:48:02.936Z,0
2017-05-17T02:48:43.327Z,0
2017-05-17T02:49:23.759Z,0
2017-05-17T02:50:04.173Z,0
2017-05-17T02:50:44.552Z,0
2017-05-17T02:51:24.961Z,0
2017-05-17T02:52:05.350Z,0
2017-05-17T02:52:45.792Z,0
2017-05-17T02:53:26.269Z,0
2017-05-17T02:54:06.639Z,0
2017-05-17T02:54:47.067Z,0
2017-05-17T02:55:27.476Z,0
2017-05-17T02:56:07.895Z,0
2017-05-17T02:56:48.304Z,0
2017-05-17T02:57:28.655Z,0
2017-05-17T02:58:09.081Z,0
2017-05-17T02:58:49.492Z,0
2017-05-17T02:59:29.895Z,0
2017-05-17T03:00:10.279Z,0
2017-05-17T03:00:50.680Z,0
2017-05-17T03:01:31.182Z,0
2017-05-17T03:02:11.605Z,0
2017-05-17T03:02:51.986Z,0
2017-05-17T03:03:32.412Z,0
2017-05-17T03:04:12.808Z,0
2017-05-17T03:04:53.246Z,0
2017-05-17T03:05:33.663Z,0
2017-05-17T03:06:14.087Z,0
2017-05-17T03:06:54.468Z,0
2017-05-17T03:07:34.928Z,0
2017-05-17T03:08:15.339Z,0
2017-05-17T03:08:55.723Z,0
2017-05-17T03:09:36.244Z,0
2017-05-17T03:10:16.605Z,0
2017-05-17T03:10:57.101Z,0
2017-05-17T03:11:37.478Z,0
2017-05-17T03:12:17.967Z,0
2017-05-17T03:12:58.346Z,0
2017-05-17T03:13:38.781Z,0
2017-05-17T03:14:19.211Z,0
2017-05-17T03:14:59.590Z,0
2017-05-17T03:15:40.036Z,0
2017-05-17T03:16:20.435Z,0
2017-05-17T03:17:00.806Z,0
2017-05-17T03:17:41.255Z,0
2017-05-17T03:18:21.687Z,0
2017-05-17T03:19:02.125Z,0
2017-05-17T03:19:42.522Z,0
2017-05-17T03:20:22.996Z,0
2017-05-17T03:21:03.396Z,0
2017-05-17T03:21:43.823Z,0
2017-05-17T03:22:24.252Z,0
2017-05-17T03:23:04.645Z,0
2017-05-17T03:23:45.017Z,0
2017-05-17T03:24:27.384Z,0
2017-05-17T03:25:07.839Z,0
2017-05-17T03:25:49.756Z,0
2017-05-17T03:26:30.220Z,0
2017-05-17T03:27:10.638Z,0
2017-05-17T03:27:51.093Z,0
2017-05-17T03:28:31.498Z,0
2017-05-17T03:29:11.928Z,5
2017-05-17T03:29:53.115Z,5
2017-05-17T03:30:33.478Z,5
2017-05-17T03:31:13.979Z,5
2017-05-17T03:31:54.348Z,5
2017-05-17T03:32:34.814Z,5
2017-05-17T03:33:15.212Z,5
2017-05-17T03:33:55.585Z,5
2017-05-17T03:34:36.666Z,5
2017-05-17T03:35:17.067Z,5
2017-05-17T03:35:57.425Z,5
2017-05-17T03:36:37.836Z,10
2017-05-17T03:37:18.314Z,10
2017-05-17T03:37:58.765Z,10
2017-05-17T03:38:39.264Z,10
2017-05-17T03:39:19.571Z,10
2017-05-17T03:40:00.014Z,10
2017-05-17T03:40:40.454Z,10
2017-05-17T03:41:20.824Z,10
2017-05-17T03:42:01.207Z,15
2017-05-17T03:42:41.635Z,15
2017-05-17T03:43:22.060Z,15
2017-05-17T03:44:02.451Z,15
2017-05-17T03:44:42.893Z,15
2017-05-17T03:45:23.330Z,15
2017-05-17T03:46:03.732Z,15
2017-05-17T03:46:44.155Z,20
2017-05-17T03:47:24.603Z,20
2017-05-17T03:48:05.120Z,20
2017-05-17T03:48:45.539Z,20
2017-05-17T03:49:25.972Z,20
2017-05-17T03:50:07.260Z,25
2017-05-17T03:50:47.729Z,25
2017-05-17T03:51:28.104Z,25
2017-05-17T03:52:08.548Z,25
2017-05-17T03:52:50.477Z,25
2017-05-17T03:53:32.724Z,25
2017-05-17T03:54:13.104Z,30
2017-05-17T03:54:53.494Z,30
2017-05-17T03:55:33.941Z,30
2017-05-17T03:56:15.200Z,30
2017-05-17T03:56:57.566Z,35
2017-05-17T03:57:37.914Z,35
2017-05-17T03:58:18.378Z,35
2017-05-17T03:58:58.746Z,35
2017-05-17T03:59:39.194Z,35
2017-05-17T04:00:19.622Z,35
2017-05-17T04:01:01.025Z,40
2017-05-17T04:01:41.462Z,40
2017-05-17T04:02:21.892Z,40
2017-05-17T04:03:02.332Z,40
2017-05-17T04:03:43.595Z,40
2017-05-17T04:04:24.044Z,45
2017-05-17T04:05:06.292Z,45
2017-05-17T04:05:46.674Z,45
2017-05-17T04:06:28.586Z,45
2017-05-17T04:07:10.847Z,50
2017-05-17T04:07:51.186Z,50
2017-05-17T04:08:31.586Z,50
2017-05-17T04:09:12.715Z,50
2017-05-17T04:09:53.245Z,50
2017-05-17T04:10:33.664Z,55
2017-05-17T04:11:14.611Z,55
2017-05-17T04:11:55.039Z,55
2017-05-17T04:12:36.172Z,55
2017-05-17T04:13:16.519Z,55
2017-05-17T04:13:56.915Z,60
2017-05-17T04:14:37.347Z,60
2017-05-17T04:15:17.725Z,60
2017-05-17T04:15:58.162Z,60
2017-05-17T04:16:40.840Z,65
2017-05-17T04:17:21.288Z,65
2017-05-17T04:18:01.685Z,65
2017-05-17T04:18:42.101Z,65
2017-05-17T04:19:22.484Z,65
2017-05-17T04:20:02.896Z,70
2017-05-17T04:20:43.311Z,70
2017-05-17T04:21:23.714Z,70
2017-05-17T04:22:04.134Z,70
2017-05-17T04:22:44.600Z,70
2017-05-17T04:23:25.081Z,75
2017-05-17T04:24:05.487Z,75
2017-05-17T04:24:46.439Z,75
2017-05-17T04:25:26.856Z,75
2017-05-17T04:26:07.955Z,80
2017-05-17T04:26:49.085Z,80
2017-05-17T04:27:29.519Z,80
2017-05-17T04:28:11.408Z,85
2017-05-17T04:28:52.817Z,85
2017-05-17T04:31:07.777Z,95
2017-05-17T04:31:52.425Z,95
2017-05-17T04:32:32.870Z,100
2017-05-17T04:34:50.589Z,105
2017-05-17T04:35:30.866Z,110
2017-05-17T04:39:33.411Z,120
2017-05-17T04:40:13.841Z,120
2017-05-17T04:40:54.262Z,125
2017-05-17T04:41:34.873Z,125
2017-05-17T04:42:16.129Z,125
2017-05-17T04:42:56.552Z,125
2017-05-17T04:43:37.009Z,130
2017-05-17T04:44:17.405Z,130
2017-05-17T04:44:57.834Z,130
2017-05-17T04:45:38.276Z,130
2017-05-17T04:46:18.667Z,130
2017-05-17T04:46:59.125Z,130
2017-05-17T04:47:39.496Z,130
2017-05-17T04:48:19.854Z,135
2017-05-17T04:49:00.257Z,135
2017-05-17T04:49:40.672Z,135
2017-05-17T04:50:21.131Z,140
2017-05-17T04:51:01.525Z,140
2017-05-17T04:51:42.602Z,140
2017-05-17T04:52:23.063Z,140
2017-05-17T04:53:03.478Z,145
2017-05-17T04:53:44.048Z,145
2017-05-17T04:54:24.421Z,150
2017-05-17T04:55:04.829Z,150
2017-05-17T04:55:45.278Z,155
2017-05-17T04:56:26.916Z,155
2017-05-17T04:57:07.306Z,155
2017-05-17T04:57:47.842Z,160
2017-05-17T04:58:28.266Z,165
2017-05-17T04:59:08.654Z,165
2017-05-17T04:59:49.030Z,170
2017-05-17T05:00:29.432Z,170
2017-05-17T05:01:09.894Z,175
2017-05-17T05:01:50.309Z,180
2017-05-17T05:02:30.796Z,185
2017-05-17T05:03:11.194Z,190
2017-05-17T05:03:51.581Z,190
2017-05-17T05:04:32.031Z,195
2017-05-17T05:05:12.451Z,195
2017-05-17T05:05:52.893Z,195
2017-05-17T05:06:33.262Z,195
2017-05-17T05:07:13.790Z,195
2017-05-17T05:07:54.142Z,200
2017-05-17T05:08:34.624Z,200
2017-05-17T05:09:15.969Z,200
2017-05-17T05:09:57.110Z,205
2017-05-17T05:10:38.391Z,205
2017-05-17T05:11:19.772Z,205
2017-05-17T05:12:00.951Z,210
2017-05-17T05:12:42.857Z,210
2017-05-17T05:13:24.051Z,210
2017-05-17T05:14:04.460Z,215
2017-05-17T05:14:45.438Z,215
2017-05-17T05:15:26.143Z,215
2017-05-17T05:16:06.777Z,220
2017-05-17T05:16:47.171Z,220
2017-05-17T05:17:27.681Z,220
2017-05-17T05:18:08.037Z,225
2017-05-17T05:18:48.490Z,225
2017-05-17T05:19:28.922Z,225
2017-05-17T05:20:09.372Z,230
2017-05-17T05:20:49.858Z,230
2017-05-17T05:21:31.196Z,230
2017-05-17T05:22:11.657Z,235
2017-05-17T05:22:52.046Z,235
2017-05-17T05:23:35.325Z,235
2017-05-17T05:24:17.139Z,240
2017-05-17T05:24:58.154Z,240
2017-05-17T05:25:38.533Z,240
2017-05-17T05:26:18.969Z,245
2017-05-17T05:26:59.400Z,245
2017-05-17T05:27:39.775Z,245
2017-05-17T05:28:20.209Z,250
2017-05-17T05:29:00.634Z,250
2017-05-17T05:29:41.025Z,250
2017-05-17T05:30:21.511Z,250
2017-05-17T05:31:02.053Z,255
2017-05-17T05:31:42.492Z,255
2017-05-17T05:32:22.918Z,255
2017-05-17T05:33:03.368Z,260
2017-05-17T05:33:43.888Z,260
2017-05-17T05:34:24.804Z,265
2017-05-17T05:35:05.226Z,270
2017-05-17T05:35:45.939Z,265
2017-05-17T05:36:27.116Z,265
2017-05-17T05:37:08.281Z,265
2017-05-17T05:37:49.641Z,270
2017-05-17T05:38:30.066Z,270
2017-05-17T05:39:10.975Z,270
2017-05-17T05:39:51.406Z,275
2017-05-17T05:40:32.454Z,275
2017-05-17T05:41:12.861Z,275
2017-05-17T05:41:53.327Z,275
2017-05-17T05:42:34.356Z,280
2017-05-17T05:43:14.949Z,280
2017-05-17T05:43:55.446Z,280
2017-05-17T05:44:35.822Z,285
2017-05-17T05:45:16.304Z,285
2017-05-17T05:45:57.567Z,285
2017-05-17T05:46:46.049Z,290
2017-05-17T05:47:26.751Z,290
2017-05-17T05:48:07.248Z,295
2017-05-17T05:48:47.671Z,295
2017-05-17T05:49:28.775Z,295
2017-05-17T05:50:10.196Z,300
2017-05-17T05:50:53.599Z,300
2017-05-17T05:51:35.676Z,300
2017-05-17T05:52:18.687Z,305
2017-05-17T05:52:59.090Z,305
2017-05-17T05:53:42.185Z,305
2017-05-17T05:54:22.660Z,305
2017-05-17T05:55:03.709Z,305
2017-05-17T05:55:45.765Z,310
2017-05-17T05:56:26.381Z,310
2017-05-17T05:57:08.249Z,310
2017-05-17T05:57:49.497Z,315
2017-05-17T05:58:30.157Z,315
2017-05-17T05:59:10.636Z,315
2017-05-17T05:59:51.788Z,320
2017-05-17T06:00:34.643Z,320
2017-05-17T06:01:17.675Z,325
2017-05-17T06:01:58.259Z,325
2017-05-17T06:02:40.170Z,325
2017-05-17T06:03:22.247Z,330
2017-05-17T06:04:02.700Z,330
2017-05-17T06:04:43.739Z,330
2017-05-17T06:05:24.837Z,335
2017-05-17T06:06:05.815Z,335
2017-05-17T06:06:46.302Z,335
2017-05-17T06:07:27.428Z,340
2017-05-17T06:08:10.353Z,340
2017-05-17T06:08:51.352Z,340
2017-05-17T06:09:32.412Z,345
2017-05-17T06:10:12.785Z,345
2017-05-17T06:10:53.256Z,345
2017-05-17T06:11:33.627Z,350
2017-05-17T06:12:14.019Z,350
2017-05-17T06:12:56.910Z,355
2017-05-17T06:13:38.158Z,355
2017-05-17T06:14:18.605Z,355
2017-05-17T06:14:58.921Z,360
2017-05-17T06:15:42.141Z,360
2017-05-17T06:16:22.583Z,360
2017-05-17T06:17:03.902Z,365
2017-05-17T06:17:48.159Z,370
2017-05-17T06:18:30.256Z,365
2017-05-17T06:19:13.253Z,370
2017-05-17T06:19:53.683Z,370
2017-05-17T06:20:39.671Z,370
2017-05-17T06:21:20.889Z,375
2017-05-17T06:22:01.337Z,375
2017-05-17T06:22:44.358Z,375
2017-05-17T06:23:24.754Z,380
2017-05-17T06:24:05.201Z,380
2017-05-17T06:24:48.175Z,380
2017-05-17T06:25:29.522Z,380
2017-05-17T06:26:11.754Z,390
2017-05-17T06:26:52.833Z,385
2017-05-17T06:27:33.738Z,385
2017-05-17T06:28:14.681Z,385
2017-05-17T06:28:55.960Z,390
2017-05-17T06:29:36.389Z,390
2017-05-17T06:30:19.274Z,390
2017-05-17T06:31:00.513Z,395
2017-05-17T06:31:41.914Z,395
2017-05-17T06:32:22.349Z,395
2017-05-17T06:33:02.764Z,400
2017-05-17T06:33:43.249Z,400
2017-05-17T06:34:23.668Z,400
2017-05-17T06:35:04.088Z,400
2017-05-17T06:35:44.489Z,405
2017-05-17T06:36:24.943Z,405
2017-05-17T06:37:05.431Z,405
2017-05-17T06:37:45.730Z,410
2017-05-17T06:38:26.174Z,410
2017-05-17T06:39:06.567Z,410
2017-05-17T06:39:47.901Z,410
2017-05-17T06:40:28.377Z,410
2017-05-17T06:41:09.367Z,415
2017-05-17T06:41:50.272Z,415
2017-05-17T06:42:30.717Z,415
2017-05-17T06:43:11.151Z,415
2017-05-17T06:43:51.531Z,415
2017-05-17T06:44:33.007Z,420
2017-05-17T06:45:14.520Z,420
2017-05-17T06:45:54.938Z,420
2017-05-17T06:46:36.150Z,420
2017-05-17T06:47:16.638Z,425
2017-05-17T06:47:57.002Z,425
2017-05-17T06:48:37.477Z,425
2017-05-17T06:49:17.876Z,425
2017-05-17T06:49:58.339Z,430
2017-05-17T06:50:38.729Z,430
2017-05-17T06:51:19.177Z,430
2017-05-17T06:51:59.603Z,430
2017-05-17T06:52:40.022Z,430
2017-05-17T06:53:20.397Z,435
2017-05-17T06:54:00.821Z,435
2017-05-17T06:54:42.182Z,440
2017-05-17T06:55:22.610Z,440
2017-05-17T06:56:03.022Z,450
2017-05-17T06:56:43.492Z,445
2017-05-17T06:57:23.888Z,445
2017-05-17T06:58:04.339Z,450
2017-05-17T06:58:44.808Z,450
2017-05-17T06:59:25.173Z,450
2017-05-17T07:00:05.614Z,455
2017-05-17T07:00:45.994Z,460
2017-05-17T07:01:26.425Z,470
2017-05-17T07:02:06.860Z,480
2017-05-17T07:02:47.271Z,490
2017-05-17T07:03:27.722Z,495
2017-05-17T07:04:08.136Z,505
2017-05-17T07:04:48.544Z,510
2017-05-17T07:05:29.018Z,520
2017-05-17T07:06:09.369Z,535
2017-05-17T07:06:49.851Z,555
2017-05-17T07:07:30.240Z,580
2017-05-17T07:08:10.647Z,615
2017-05-17T07:08:51.092Z,660
2017-05-17T07:09:31.471Z,700
2017-05-17T07:10:11.889Z,740
2017-05-17T07:10:52.318Z,765
2017-05-17T07:11:33.250Z,790
2017-05-17T07:12:17.188Z,810
2017-05-17T07:12:59.187Z,835
2017-05-17T07:13:41.420Z,845
2017-05-17T07:14:21.875Z,855
2017-05-17T07:15:02.315Z,865
2017-05-17T07:15:43.258Z,880
2017-05-17T07:16:23.652Z,890
2017-05-17T07:17:04.793Z,900
2017-05-17T07:17:45.205Z,915
2017-05-17T07:18:27.480Z,925
2017-05-17T07:19:08.527Z,945
2017-05-17T07:19:51.275Z,950
2017-05-17T07:20:31.706Z,970
2017-05-17T07:21:13.703Z,990
2017-05-17T07:21:54.162Z,1025
2017-05-17T07:22:39.691Z,1115
2017-05-17T07:23:20.121Z,1320
2017-05-17T07:24:00.535Z,1905
2017-05-17T07:24:40.961Z,2395
2017-05-17T07:25:21.378Z,2560
2017-05-17T07:26:01.804Z,2520
2017-05-17T07:26:42.232Z,2610
2017-05-17T07:27:22.663Z,2625
2017-05-17T07:28:03.115Z,2720
2017-05-17T07:28:43.549Z,2645
2017-05-17T07:29:23.977Z,2660
2017-05-17T07:30:04.352Z,2690
2017-05-17T07:30:44.788Z,2665
2017-05-17T07:31:26.079Z,2665
2017-05-17T07:32:06.510Z,2675
2017-05-17T07:32:46.930Z,2795
2017-05-17T07:33:28.282Z,2810
2017-05-17T07:34:08.728Z,2910
2017-05-17T07:34:49.164Z,2915
2017-05-17T07:35:29.853Z,2915
2017-05-17T07:36:10.133Z,2910
2017-05-17T07:36:50.548Z,2855
2017-05-17T07:37:30.954Z,3015
2017-05-17T07:38:11.733Z,3155
2017-05-17T07:38:52.147Z,3225
2017-05-17T07:39:32.673Z,3060
2017-05-17T07:42:10.834Z,2890
2017-05-17T07:42:51.289Z,2940
2017-05-17T07:43:31.693Z,3035
2017-05-17T07:44:12.129Z,3155
2017-05-17T07:46:50.391Z,3410
2017-05-17T07:47:30.817Z,3210
2017-05-17T07:48:11.251Z,3305
2017-05-17T07:50:27.266Z,3355
2017-05-17T07:51:07.709Z,3305
2017-05-17T07:51:48.151Z,3500
2017-05-17T07:52:28.612Z,3550
2017-05-17T07:53:09.027Z,3545
2017-05-17T07:53:49.468Z,3565
2017-05-17T07:54:29.951Z,3640
2017-05-17T07:55:10.445Z,3595
2017-05-17T07:55:50.825Z,3575
2017-05-17T07:56:31.296Z,3605
2017-05-17T07:57:11.716Z,3660
2017-05-17T07:57:52.167Z,3495
2017-05-17T07:58:33.530Z,3485
2017-05-17T07:59:13.908Z,3450
2017-05-17T07:59:54.315Z,3405
2017-05-17T08:00:34.769Z,3370
2017-05-17T08:01:15.210Z,3630
2017-05-17T08:01:55.645Z,3825
2017-05-17T08:02:36.066Z,3670
2017-05-17T08:03:16.476Z,3710
2017-05-17T08:05:46.303Z,3930
2017-05-17T08:06:26.756Z,3760
2017-05-17T08:07:07.195Z,3770
2017-05-17T08:07:48.277Z,3765
2017-05-17T08:08:29.319Z,3850
2017-05-17T08:09:09.753Z,4030
2017-05-17T08:09:50.197Z,4000
2017-05-17T08:10:31.239Z,3985
2017-05-17T08:11:11.728Z,3985
2017-05-17T08:11:52.128Z,4105
2017-05-17T08:12:32.557Z,3935
2017-05-17T08:13:13.015Z,3860
2017-05-17T08:13:53.417Z,3910
2017-05-17T08:14:33.836Z,3975
2017-05-17T08:15:14.281Z,3855
2017-05-17T08:15:54.709Z,3745
2017-05-17T08:16:35.134Z,3870
2017-05-17T08:17:15.616Z,3975
2017-05-17T08:17:56.074Z,3860
2017-05-17T08:18:36.490Z,3975
2017-05-17T08:19:16.883Z,4025
2017-05-17T08:19:57.344Z,4160
2017-05-17T08:20:37.773Z,3825
2017-05-17T08:21:18.220Z,3910
2017-05-17T08:21:58.630Z,3790
2017-05-17T08:22:39.056Z,3825
2017-05-17T08:23:19.472Z,3890
2017-05-17T08:23:59.927Z,4015
2017-05-17T08:24:41.228Z,4185
2017-05-17T08:25:21.684Z,4250
2017-05-17T08:26:02.128Z,4210
2017-05-17T08:26:42.622Z,4040
2017-05-17T08:27:23.032Z,3975
2017-05-17T08:28:03.412Z,3970
2017-05-17T08:28:44.382Z,3965
2017-05-17T08:29:25.780Z,3985
2017-05-17T08:30:06.208Z,4035
2017-05-17T08:30:46.654Z,4025
2017-05-17T08:31:27.061Z,4155
2017-05-17T08:32:07.500Z,4265
2017-05-17T08:32:47.947Z,4395
2017-05-17T08:33:28.396Z,4350
2017-05-17T08:34:08.814Z,4360
2017-05-17T08:34:49.241Z,4215
2017-05-17T08:35:29.704Z,4210
2017-05-17T08:36:10.175Z,4400
2017-05-17T08:36:50.564Z,4310
2017-05-17T08:37:31.021Z,4360
2017-05-17T08:38:11.435Z,4540
2017-05-17T08:38:51.883Z,4575
2017-05-17T08:39:32.281Z,4525
2017-05-17T08:41:45.997Z,4025
2017-05-17T08:42:26.446Z,4305
2017-05-17T08:43:06.878Z,4440
2017-05-17T08:43:47.308Z,4510
2017-05-17T08:46:25.575Z,4350
2017-05-17T08:47:06.022Z,4500
2017-05-17T08:47:46.488Z,4520
2017-05-17T08:48:26.916Z,4680
2017-05-17T08:49:07.315Z,4725
2017-05-17T08:49:47.755Z,4745
2017-05-17T08:50:28.208Z,4575
2017-05-17T08:51:08.691Z,4655
2017-05-17T08:51:49.099Z,4695
2017-05-17T08:52:29.506Z,4475
2017-05-17T08:53:09.901Z,4660
2017-05-17T08:55:48.372Z,4645
2017-05-17T08:56:28.818Z,4765
2017-05-17T08:57:09.290Z,4850
2017-05-17T08:57:49.685Z,4980
2017-05-17T08:58:30.122Z,4915
2017-05-17T08:59:10.533Z,4725
2017-05-17T08:59:50.969Z,4735
2017-05-17T09:00:31.432Z,4860
2017-05-17T09:01:11.848Z,4850
2017-05-17T09:01:52.299Z,4995
2017-05-17T09:02:32.770Z,4920
2017-05-17T09:03:13.217Z,4850
2017-05-17T09:03:53.628Z,4560
2017-05-17T09:04:34.040Z,4690
2017-05-17T09:05:14.515Z,4785
2017-05-17T09:05:54.893Z,4870
2017-05-17T09:06:35.356Z,4805
2017-05-17T09:07:15.788Z,5040
2017-05-17T09:07:56.235Z,5080
2017-05-17T09:08:36.663Z,5070
2017-05-17T09:09:17.111Z,4775
2017-05-17T09:09:57.543Z,5010
2017-05-17T09:10:37.960Z,5150
2017-05-17T09:11:18.372Z,5295
2017-05-17T09:11:58.807Z,4955
2017-05-17T09:12:39.256Z,4880
2017-05-17T09:13:19.664Z,5005
2017-05-17T09:14:00.086Z,5160
2017-05-17T09:14:40.547Z,5175
2017-05-17T09:15:20.953Z,5145
2017-05-17T09:16:01.382Z,5015
2017-05-17T09:16:41.845Z,5165
2017-05-17T09:17:22.269Z,5210
2017-05-17T09:18:03.257Z,5200
2017-05-17T09:18:43.707Z,5250
2017-05-17T09:19:24.126Z,5075
2017-05-17T09:20:04.543Z,5230
2017-05-17T09:20:44.974Z,5125
2017-05-17T09:21:25.389Z,5215
2017-05-17T09:22:05.881Z,5080
2017-05-17T09:22:46.297Z,5095
2017-05-17T09:23:26.760Z,5110
2017-05-17T09:24:07.150Z,5025
2017-05-17T09:24:47.635Z,5095
2017-05-17T09:25:28.104Z,4890
2017-05-17T09:26:08.566Z,4930
2017-05-17T09:26:48.971Z,5285
2017-05-17T09:27:29.422Z,5275
2017-05-17T09:30:07.858Z,5080
2017-05-17T09:30:48.297Z,5045
2017-05-17T09:31:28.744Z,5350
2017-05-17T09:32:09.167Z,5470
2017-05-17T09:32:49.597Z,5275
2017-05-17T09:33:30.046Z,4855
2017-05-17T09:34:10.447Z,4720
2017-05-17T09:36:38.818Z,5420
2017-05-17T09:37:19.247Z,5570
2017-05-17T09:37:59.705Z,5440
2017-05-17T09:38:41.222Z,5285
2017-05-17T09:39:21.831Z,5325
2017-05-17T09:40:02.441Z,5295
2017-05-17T09:40:42.840Z,5375
2017-05-17T09:41:25.013Z,5240
2017-05-17T09:42:05.383Z,4990
2017-05-17T09:42:45.840Z,5240
2017-05-17T09:43:26.300Z,5455
2017-05-17T09:44:06.712Z,5315
2017-05-17T09:44:47.181Z,5275
2017-05-17T09:45:27.606Z,5265
2017-05-17T09:46:08.006Z,5225
2017-05-17T09:46:48.482Z,5135
2017-05-17T09:47:28.897Z,5320
2017-05-17T09:48:09.342Z,5335
2017-05-17T09:48:49.788Z,5610
2017-05-17T09:49:30.239Z,5615
2017-05-17T09:50:10.688Z,5600
2017-05-17T09:50:51.131Z,5225
2017-05-17T09:51:31.583Z,5110
2017-05-17T09:52:12.006Z,5170
2017-05-17T09:54:45.165Z,5570
2017-05-17T09:55:27.967Z,5590
2017-05-17T09:56:08.637Z,5390
2017-05-17T09:56:49.067Z,5335